createdAt,value
2022-08-22T00:00:26.920Z,76.76
2022-08-22T00:02:48.505Z,66.77
2022-08-22T00:02:59.904Z,68.24
2022-08-22T00:03:03.864Z,58.40
2022-08-22T00:03:07.041Z,76.56
2022-08-22T00:03:08.327Z,72.24
2022-08-22T00:06:02.469Z,76.73
2022-08-22T00:08:41.230Z,76.73
2022-08-22T00:11:18.611Z,77.01
2022-08-22T00:14:01.958Z,77.36
2022-08-22T00:16:38.114Z,77.30
2022-08-22T00:19:19.281Z,77.43
2022-08-22T00:21:57.544Z,77.63
2022-08-22T00:24:32.053Z,77.64
2022-08-22T00:27:06.246Z,77.71
2022-08-22T00:29:43.522Z,77.94
2022-08-22T00:32:20.109Z,78.05
2022-08-22T00:34:57.272Z,77.88
2022-08-22T00:37:32.135Z,78.03
2022-08-22T00:40:10.564Z,77.70
2022-08-22T00:43:08.901Z,78.27
2022-08-22T00:46:21.356Z,78.02
2022-08-22T00:49:25.410Z,78.18
2022-08-22T00:55:22.030Z,78.34
2022-08-22T00:58:11.467Z,78.40
2022-08-22T01:00:46.793Z,78.58
2022-08-22T01:03:51.084Z,78.71
2022-08-22T01:06:31.311Z,78.61
2022-08-22T01:09:08.758Z,78.59
2022-08-22T01:12:01.122Z,78.53
2022-08-22T01:14:41.742Z,78.73
2022-08-22T01:17:38.084Z,78.76
2022-08-22T01:20:47.432Z,78.91
2022-08-22T01:24:34.027Z,78.83
2022-08-22T01:28:37.818Z,78.91
2022-08-22T01:31:44.344Z,78.76
2022-08-22T01:34:59.926Z,78.79
2022-08-22T01:37:57.306Z,78.68
2022-08-22T01:41:01.371Z,78.64
2022-08-22T01:44:10.346Z,78.65
2022-08-22T01:46:51.404Z,78.87
2022-08-22T01:49:23.802Z,78.90
2022-08-22T01:51:59.998Z,79.18
2022-08-22T01:54:49.139Z,79.48
2022-08-22T01:57:18.695Z,79.25
2022-08-22T01:59:52.914Z,79.28
2022-08-22T02:02:53.409Z,79.20
2022-08-22T02:05:28.725Z,79.22
2022-08-22T02:08:04.966Z,79.39
2022-08-22T02:10:56.335Z,79.25
2022-08-22T02:13:43.517Z,79.70
2022-08-22T02:16:18.434Z,79.79
2022-08-22T02:19:00.668Z,79.40
2022-08-22T02:21:43.995Z,79.28
2022-08-22T02:24:35.969Z,79.54
2022-08-22T02:27:13.933Z,79.89
2022-08-22T02:29:49.251Z,79.90
2022-08-22T02:32:25.043Z,79.87
2022-08-22T02:35:03.469Z,79.98
2022-08-22T02:37:39.540Z,80.10
2022-08-22T02:40:15.675Z,80.15
2022-08-22T02:42:52.720Z,80.14
2022-08-22T02:45:30.100Z,80.02
2022-08-22T02:48:07.706Z,80.02
2022-08-22T02:50:45.059Z,79.97
2022-08-22T02:53:19.012Z,80.28
2022-08-22T02:55:59.766Z,80.16
2022-08-22T02:58:40.575Z,80.32
2022-08-22T03:01:37.201Z,80.28
2022-08-22T03:04:28.721Z,80.48
2022-08-22T03:07:12.890Z,80.93
2022-08-22T03:09:48.868Z,80.86
2022-08-22T03:12:26.731Z,81.24
2022-08-22T03:15:06.402Z,81.07
2022-08-22T03:17:39.972Z,81.29
2022-08-22T03:20:15.562Z,80.99
2022-08-22T03:22:51.198Z,81.15
2022-08-22T03:25:28.382Z,81.21
2022-08-22T03:28:03.333Z,80.86
2022-08-22T03:30:40.734Z,81.48
2022-08-22T03:33:21.055Z,81.17
2022-08-22T03:36:05.125Z,81.58
2022-08-22T03:38:50.511Z,81.49
2022-08-22T03:42:04.845Z,81.59
2022-08-22T03:45:27.531Z,81.87
2022-08-22T03:48:38.068Z,81.83
2022-08-22T03:51:41.770Z,82.00
2022-08-22T03:55:00.077Z,81.85
2022-08-22T03:58:27.409Z,82.03
2022-08-22T04:01:31.467Z,82.30
2022-08-22T04:04:46.849Z,82.00
2022-08-22T04:07:49.106Z,82.49
2022-08-22T04:10:52.674Z,82.16
2022-08-22T04:14:04.427Z,82.23
2022-08-22T04:17:21.160Z,82.19
2022-08-22T04:20:38.301Z,82.40
2022-08-22T04:23:40.398Z,82.21
2022-08-22T04:26:15.653Z,82.31
2022-08-22T04:28:49.091Z,82.41
2022-08-22T04:31:24.577Z,82.50
2022-08-22T04:34:01.863Z,82.35
2022-08-22T04:36:37.072Z,82.58
2022-08-22T04:39:10.873Z,82.75
2022-08-22T04:41:48.217Z,82.69
2022-08-22T04:44:25.482Z,82.64
2022-08-22T04:46:59.542Z,82.88
2022-08-22T04:49:36.653Z,82.87
2022-08-22T04:52:13.772Z,82.85
2022-08-22T04:54:57.846Z,82.76
2022-08-22T04:57:37.049Z,82.87
2022-08-22T05:00:10.180Z,82.64
2022-08-22T05:02:41.545Z,82.65
2022-08-22T05:05:21.906Z,82.83
2022-08-22T05:07:54.566Z,82.75
2022-08-22T05:10:34.520Z,82.91
2022-08-22T05:13:07.813Z,82.99
2022-08-22T05:15:40.559Z,83.08
2022-08-22T05:18:20.123Z,82.92
2022-08-22T05:20:51.540Z,82.86
2022-08-22T05:23:23.022Z,82.82
2022-08-22T05:25:57.188Z,82.58
2022-08-22T05:28:34.866Z,82.65
2022-08-22T05:31:08.346Z,82.64
2022-08-22T05:33:42.790Z,82.47
2022-08-22T05:36:16.389Z,82.46
2022-08-22T05:38:50.381Z,82.10
2022-08-22T05:41:23.693Z,82.15
2022-08-22T05:43:53.679Z,81.91
2022-08-22T05:46:40.597Z,81.90
2022-08-22T05:49:20.178Z,81.79
2022-08-22T05:52:04.165Z,81.16
2022-08-22T05:54:39.838Z,81.27
2022-08-22T05:57:16.569Z,81.00
2022-08-22T05:59:47.803Z,80.82
2022-08-22T06:02:23.968Z,80.59
2022-08-22T06:04:55.898Z,80.12
2022-08-22T06:07:34.498Z,79.88
2022-08-22T06:10:25.994Z,80.08
2022-08-22T06:13:00.769Z,79.82
2022-08-22T06:15:36.142Z,79.14
2022-08-22T06:18:08.065Z,79.34
2022-08-22T06:20:43.017Z,79.05
2022-08-22T06:23:20.213Z,78.85
2022-08-22T06:25:50.729Z,78.73
2022-08-22T06:28:24.081Z,78.65
2022-08-22T06:30:55.669Z,78.50
2022-08-22T06:33:29.228Z,78.18
2022-08-22T06:36:20.526Z,77.76
2022-08-22T06:39:18.488Z,78.09
2022-08-22T06:41:52.284Z,77.58
2022-08-22T06:44:28.533Z,77.51
2022-08-22T06:47:01.895Z,76.83
2022-08-22T06:49:31.873Z,76.64
2022-08-22T06:52:03.842Z,76.42
2022-08-22T06:54:38.220Z,75.78
2022-08-22T06:57:24.312Z,75.75
2022-08-22T06:59:54.710Z,75.03
2022-08-22T07:02:30.877Z,74.95
2022-08-22T07:04:59.294Z,74.87
2022-08-22T07:07:28.931Z,74.12
2022-08-22T07:09:58.640Z,74.05
2022-08-22T07:12:31.801Z,73.70
2022-08-22T07:15:11.538Z,73.77
2022-08-22T07:17:50.836Z,73.33
2022-08-22T07:20:26.968Z,73.07
2022-08-22T07:23:00.438Z,72.63
2022-08-22T07:25:31.693Z,72.37
2022-08-22T07:28:18.349Z,72.23
2022-08-22T07:30:57.642Z,71.59
2022-08-22T07:33:43.805Z,71.64
2022-08-22T07:36:32.008Z,71.36
2022-08-22T07:39:29.956Z,71.30
2022-08-22T07:42:10.455Z,70.94
2022-08-22T07:45:04.954Z,70.62
2022-08-22T07:47:50.235Z,70.26
2022-08-22T07:50:24.994Z,69.88
2022-08-22T07:52:54.889Z,69.10
2022-08-22T07:55:26.462Z,69.05
2022-08-22T07:58:01.682Z,68.85
2022-08-22T08:00:33.941Z,68.58
2022-08-22T08:03:07.088Z,68.15
2022-08-22T08:05:38.679Z,67.52
2022-08-22T08:08:15.734Z,67.72
2022-08-22T08:10:44.444Z,67.18
2022-08-22T08:13:23.129Z,67.08
2022-08-22T08:15:52.119Z,66.81
2022-08-22T08:18:25.797Z,66.06
2022-08-22T08:20:57.539Z,66.01
2022-08-22T08:23:27.151Z,65.79
2022-08-22T08:26:04.582Z,65.59
2022-08-22T08:28:39.171Z,64.67
2022-08-22T08:31:20.613Z,64.75
2022-08-22T08:33:51.852Z,63.91
2022-08-22T08:36:39.164Z,63.81
2022-08-22T08:39:18.194Z,63.26
2022-08-22T08:42:56.995Z,63.12
2022-08-22T08:46:07.551Z,63.07
2022-08-22T08:49:17.217Z,62.30
2022-08-22T08:52:51.096Z,62.67
2022-08-22T08:55:39.161Z,61.99
2022-08-22T08:58:38.054Z,61.75
2022-08-22T09:01:45.353Z,61.53
2022-08-22T09:04:59.814Z,60.95
2022-08-22T09:07:51.760Z,61.20
2022-08-22T09:10:57.118Z,61.38
2022-08-22T09:13:55.748Z,60.73
2022-08-22T09:16:46.195Z,60.81
2022-08-22T09:20:36.129Z,60.41
2022-08-22T09:23:45.355Z,60.00
2022-08-22T09:26:19.931Z,59.69
2022-08-22T09:29:00.664Z,59.09
2022-08-22T09:31:47.806Z,57.92
2022-08-22T09:34:29.293Z,57.55
2022-08-22T09:37:17.018Z,57.21
2022-08-22T09:39:57.454Z,56.64
2022-08-22T09:42:36.109Z,56.43
2022-08-22T09:45:47.915Z,56.02
2022-08-22T09:48:46.582Z,56.15
2022-08-22T09:51:32.576Z,55.37
2022-08-22T09:54:22.869Z,54.93
2022-08-22T09:57:02.419Z,54.77
2022-08-22T09:59:58.147Z,54.08
2022-08-22T10:02:36.346Z,53.56
2022-08-22T10:05:39.467Z,52.59
2022-08-22T10:08:19.840Z,52.26
2022-08-22T10:11:19.531Z,51.91
2022-08-22T10:14:03.661Z,50.66
2022-08-22T10:16:51.766Z,50.12
2022-08-22T10:19:28.530Z,49.64
2022-08-22T10:22:32.573Z,49.72
2022-08-22T10:25:28.736Z,50.22
2022-08-22T10:28:15.518Z,51.26
2022-08-22T10:31:00.868Z,50.74
2022-08-22T10:33:36.442Z,50.91
2022-08-22T10:36:12.276Z,50.56
2022-08-22T10:38:47.209Z,50.78
2022-08-22T10:41:28.961Z,50.72
2022-08-22T10:44:04.516Z,50.57
2022-08-22T10:46:39.512Z,50.61
2022-08-22T10:49:20.374Z,51.10
2022-08-22T10:51:58.933Z,50.79
2022-08-22T10:54:49.400Z,49.96
2022-08-22T10:57:41.860Z,49.39
2022-08-22T11:00:28.441Z,49.11
2022-08-22T11:03:10.953Z,49.15
2022-08-22T11:05:50.052Z,49.32
2022-08-22T11:08:54.959Z,49.18
2022-08-22T11:11:42.880Z,49.16
2022-08-22T11:14:44.908Z,48.45
2022-08-22T11:17:38.120Z,47.26
2022-08-22T11:20:21.248Z,46.32
2022-08-22T11:23:12.295Z,46.10
2022-08-22T11:25:54.187Z,46.11
2022-08-22T11:28:52.113Z,45.95
2022-08-22T11:31:31.616Z,45.71
2022-08-22T11:34:12.452Z,45.56
2022-08-22T11:36:50.204Z,44.85
2022-08-22T11:39:27.572Z,44.45
2022-08-22T11:42:06.461Z,44.61
2022-08-22T11:44:50.156Z,44.55
2022-08-22T11:47:27.286Z,44.96
2022-08-22T11:50:05.569Z,45.42
2022-08-22T11:53:10.136Z,45.55
2022-08-22T11:55:42.249Z,44.87
2022-08-22T11:58:31.485Z,44.69
2022-08-22T12:01:05.931Z,44.32
2022-08-22T12:03:55.744Z,44.06
2022-08-22T12:06:56.100Z,43.10
2022-08-22T12:09:50.741Z,42.64
2022-08-22T12:12:32.634Z,42.12
2022-08-22T12:15:12.882Z,42.69
2022-08-22T12:18:21.124Z,41.47
2022-08-22T12:21:38.782Z,41.40
2022-08-22T12:24:34.780Z,41.30
2022-08-22T12:27:29.501Z,40.78
2022-08-22T12:30:14.166Z,40.60
2022-08-22T12:33:13.115Z,39.20
2022-08-22T12:36:00.370Z,39.29
2022-08-22T12:38:47.121Z,38.95
2022-08-22T12:41:40.052Z,38.50
2022-08-22T12:44:32.317Z,38.61
2022-08-22T12:47:26.424Z,38.50
2022-08-22T12:50:16.571Z,38.61
2022-08-22T12:53:23.392Z,38.80
2022-08-22T12:56:06.703Z,37.98
2022-08-22T12:59:08.810Z,37.42
2022-08-22T13:01:43.344Z,37.11
2022-08-22T13:04:32.504Z,37.45
2022-08-22T13:07:11.033Z,36.86
2022-08-22T13:09:43.293Z,36.23
2022-08-22T13:12:24.744Z,36.86
2022-08-22T13:14:59.683Z,35.11
2022-08-22T13:17:28.281Z,33.96
2022-08-22T13:20:08.525Z,32.49
2022-08-22T13:22:45.485Z,32.39
2022-08-22T13:25:25.469Z,31.54
2022-08-22T13:27:59.214Z,30.80
2022-08-22T13:30:33.898Z,30.37
2022-08-22T13:33:10.193Z,30.24
2022-08-22T13:35:51.900Z,28.97
2022-08-22T13:38:28.295Z,29.23
2022-08-22T13:40:59.115Z,28.52
2022-08-22T13:43:31.287Z,27.46
2022-08-22T13:46:04.792Z,27.41
2022-08-22T13:49:00.845Z,27.84
2022-08-22T13:51:40.114Z,26.84
2022-08-22T13:54:40.014Z,27.23
2022-08-22T13:57:16.359Z,26.06
2022-08-22T13:59:52.680Z,25.50
2022-08-22T14:02:52.597Z,26.42
2022-08-22T14:05:27.077Z,25.31
2022-08-22T14:08:12.838Z,24.97
2022-08-22T14:10:50.568Z,24.35
2022-08-22T14:13:39.559Z,24.19
2022-08-22T14:16:15.040Z,24.90
2022-08-22T14:18:51.320Z,24.17
2022-08-22T14:21:40.611Z,25.61
2022-08-22T14:24:25.836Z,24.57
2022-08-22T14:27:05.165Z,23.76
2022-08-22T14:29:42.710Z,24.41
2022-08-22T14:32:35.305Z,24.13
2022-08-22T14:35:21.528Z,23.56
2022-08-22T14:37:56.656Z,22.86
2022-08-22T14:40:31.074Z,21.92
2022-08-22T14:43:07.873Z,22.48
2022-08-22T14:45:39.783Z,22.27
2022-08-22T14:48:30.890Z,23.01
2022-08-22T14:51:05.730Z,22.47
2022-08-22T14:53:40.129Z,22.32
2022-08-22T14:56:13.773Z,22.19
2022-08-22T14:58:53.266Z,22.73
2022-08-22T15:01:26.324Z,23.74
2022-08-22T15:04:05.247Z,24.16
2022-08-22T15:06:38.112Z,23.74
2022-08-22T15:09:12.916Z,25.14
2022-08-22T15:11:49.393Z,24.22
2022-08-22T15:14:28.016Z,25.18
2022-08-22T15:17:00.305Z,25.00
2022-08-22T15:19:36.663Z,23.99
2022-08-22T15:22:16.137Z,24.87
2022-08-22T15:24:51.376Z,25.18
2022-08-22T15:27:27.723Z,24.46
2022-08-22T15:30:01.348Z,25.39
2022-08-22T15:32:36.364Z,24.45
2022-08-22T15:35:15.719Z,25.74
2022-08-22T15:37:59.848Z,26.61
2022-08-22T15:40:40.323Z,27.13
2022-08-22T15:43:20.129Z,28.02
2022-08-22T15:45:52.197Z,28.22
2022-08-22T15:48:33.667Z,28.35
2022-08-22T15:51:04.722Z,28.22
2022-08-22T15:54:16.308Z,28.27
2022-08-22T15:57:17.268Z,28.88
2022-08-22T15:59:57.510Z,29.44
2022-08-22T16:02:35.466Z,30.02
2022-08-22T16:05:24.814Z,31.24
2022-08-22T16:08:04.778Z,31.35
2022-08-22T16:10:39.926Z,32.63
2022-08-22T16:13:17.694Z,32.96
2022-08-22T16:16:03.389Z,33.73
2022-08-22T16:19:11.324Z,34.14
2022-08-22T16:22:06.994Z,34.88
2022-08-22T16:25:11.017Z,35.96
2022-08-22T16:27:55.925Z,35.93
2022-08-22T16:30:40.273Z,37.26
2022-08-22T16:33:18.313Z,37.26
2022-08-22T16:36:41.304Z,37.46
2022-08-22T16:39:31.833Z,37.94
2022-08-22T16:42:27.176Z,38.66
2022-08-22T16:45:13.435Z,39.09
2022-08-22T16:47:56.799Z,38.75
2022-08-22T16:50:34.530Z,39.35
2022-08-22T16:53:13.813Z,39.70
2022-08-22T16:56:05.261Z,40.81
2022-08-22T16:59:19.712Z,40.42
2022-08-22T17:02:28.161Z,40.37
2022-08-22T17:05:16.483Z,40.69
2022-08-22T17:08:05.608Z,40.14
2022-08-22T17:10:54.073Z,40.94
2022-08-22T17:13:47.844Z,40.41
2022-08-22T17:16:35.863Z,40.04
2022-08-22T17:19:23.810Z,40.72
2022-08-22T17:21:57.777Z,40.92
2022-08-22T17:24:37.719Z,41.94
2022-08-22T17:27:19.251Z,41.11
2022-08-22T17:30:02.701Z,40.65
2022-08-22T17:33:00.429Z,40.80
2022-08-22T17:35:46.976Z,39.97
2022-08-22T17:38:31.219Z,39.89
2022-08-22T17:41:12.234Z,39.45
2022-08-22T17:44:00.368Z,39.20
2022-08-22T17:46:43.935Z,39.40
2022-08-22T17:49:28.549Z,41.04
2022-08-22T17:52:17.812Z,41.91
2022-08-22T17:54:55.199Z,43.19
2022-08-22T17:57:30.701Z,43.58
2022-08-22T18:00:07.852Z,43.61
2022-08-22T18:02:47.745Z,43.03
2022-08-22T18:05:20.686Z,44.04
2022-08-22T18:08:00.315Z,45.11
2022-08-22T18:10:43.701Z,46.38
2022-08-22T18:13:20.378Z,47.09
2022-08-22T18:15:56.205Z,47.58
2022-08-22T18:18:32.255Z,49.21
2022-08-22T18:21:05.219Z,49.68
2022-08-22T18:23:40.920Z,50.46
2022-08-22T18:26:36.062Z,51.48
2022-08-22T18:29:13.561Z,52.36
2022-08-22T18:31:50.527Z,53.29
2022-08-22T18:34:32.798Z,53.92
2022-08-22T18:37:07.086Z,54.69
2022-08-22T18:39:43.918Z,54.95
2022-08-22T18:42:25.666Z,55.70
2022-08-22T18:44:53.994Z,55.88
2022-08-22T18:47:27.297Z,56.88
2022-08-22T18:49:57.093Z,57.39
2022-08-22T18:52:41.878Z,57.34
2022-08-22T18:55:54.870Z,57.76
2022-08-22T18:59:05.441Z,58.34
2022-08-22T19:01:50.258Z,59.21
2022-08-22T19:04:47.021Z,59.44
2022-08-22T19:07:42.031Z,60.05
2022-08-22T19:10:37.533Z,60.06
2022-08-22T19:13:30.963Z,60.78
2022-08-22T19:16:28.250Z,61.49
2022-08-22T19:19:01.467Z,61.78
2022-08-22T19:21:51.448Z,62.33
2022-08-22T19:25:12.859Z,62.67
2022-08-22T19:27:44.657Z,63.27
2022-08-22T19:30:44.067Z,63.84
2022-08-22T19:33:19.303Z,64.22
2022-08-22T19:36:11.861Z,64.40
2022-08-22T19:39:02.231Z,64.98
2022-08-22T19:41:52.430Z,65.53
2022-08-22T19:44:42.058Z,65.56
2022-08-22T19:47:28.289Z,65.91
2022-08-22T19:50:05.640Z,66.28
2022-08-22T19:52:58.651Z,66.61
2022-08-22T19:55:49.160Z,66.76
2022-08-22T19:58:31.839Z,67.05
2022-08-22T20:01:13.034Z,67.36
2022-08-22T20:03:51.490Z,67.67
2022-08-22T20:06:43.974Z,67.88
2022-08-22T20:09:39.987Z,68.27
2022-08-22T20:12:16.387Z,68.39
2022-08-22T20:14:48.169Z,69.15
2022-08-22T20:17:43.419Z,69.30
2022-08-22T20:20:36.110Z,69.47
2022-08-22T20:23:12.554Z,69.38
2022-08-22T20:25:45.927Z,69.51
2022-08-22T20:28:40.555Z,69.89
2022-08-22T20:31:22.529Z,70.31
2022-08-22T20:33:58.201Z,70.83
2022-08-22T20:36:27.586Z,71.12
2022-08-22T20:39:01.577Z,71.14
2022-08-22T20:41:35.507Z,71.74
2022-08-22T20:44:13.266Z,72.19
2022-08-22T20:46:55.492Z,71.94
2022-08-22T20:49:28.446Z,72.01
2022-08-22T20:52:00.291Z,72.11
2022-08-22T20:54:32.803Z,72.21
2022-08-22T20:57:05.190Z,72.15
2022-08-22T20:59:37.588Z,72.62
2022-08-22T21:02:18.018Z,72.82
2022-08-22T21:04:53.809Z,72.55
2022-08-22T21:07:25.741Z,72.90
2022-08-22T21:10:25.410Z,72.96
2022-08-22T21:13:08.991Z,72.75
2022-08-22T21:15:41.796Z,72.59
2022-08-22T21:18:13.046Z,72.77
2022-08-22T21:20:42.048Z,72.98
2022-08-22T21:23:15.185Z,73.26
2022-08-22T21:25:56.848Z,73.24
2022-08-22T21:28:32.795Z,73.46
2022-08-22T21:31:10.300Z,73.67
2022-08-22T21:33:46.119Z,73.56
2022-08-22T21:36:17.675Z,73.37
2022-08-22T21:38:52.450Z,73.66
2022-08-22T21:41:37.497Z,73.83
2022-08-22T21:44:29.363Z,73.73
2022-08-22T21:47:04.068Z,74.12
2022-08-22T21:49:33.528Z,73.81
2022-08-22T21:52:01.662Z,74.29
2022-08-22T21:54:41.731Z,74.65
2022-08-22T21:57:33.421Z,74.68
2022-08-22T22:00:02.050Z,74.96
2022-08-22T22:02:36.615Z,75.12
2022-08-22T22:05:11.314Z,75.19
2022-08-22T22:07:43.693Z,75.62
2022-08-22T22:10:15.562Z,75.72
2022-08-22T22:12:47.541Z,75.60
2022-08-22T22:15:20.424Z,75.53
2022-08-22T22:17:48.848Z,75.66
2022-08-22T22:20:21.061Z,75.76
2022-08-22T22:22:49.530Z,75.94
2022-08-22T22:25:39.106Z,76.67
2022-08-22T22:28:13.113Z,76.17
2022-08-22T22:30:42.456Z,76.69
2022-08-22T22:33:10.675Z,76.83
2022-08-22T22:35:41.390Z,76.54
2022-08-22T22:38:10.359Z,76.83
2022-08-22T22:40:38.536Z,77.25
2022-08-22T22:43:06.777Z,77.09
2022-08-22T22:45:35.145Z,76.89
2022-08-22T22:48:03.641Z,77.20
2022-08-22T22:50:32.225Z,77.11
2022-08-22T22:53:01.713Z,77.08
2022-08-22T22:55:29.911Z,77.07
2022-08-22T22:57:59.784Z,77.40
2022-08-22T23:00:31.155Z,77.37
2022-08-22T23:03:01.059Z,77.88
2022-08-22T23:05:31.045Z,77.90
2022-08-22T23:08:01.177Z,78.07
2022-08-22T23:10:31.953Z,78.44
2022-08-22T23:13:00.493Z,78.25
2022-08-22T23:15:29.173Z,78.18
2022-08-22T23:17:57.381Z,78.60
2022-08-22T23:20:25.649Z,78.70
2022-08-22T23:22:53.821Z,78.73
2022-08-22T23:25:23.408Z,79.01
2022-08-22T23:27:52.136Z,78.94
2022-08-22T23:30:21.737Z,79.11
2022-08-22T23:32:50.293Z,79.39
2022-08-22T23:35:18.606Z,79.65
2022-08-22T23:37:46.788Z,80.09
2022-08-22T23:40:15.010Z,79.77
2022-08-22T23:42:44.763Z,80.05
2022-08-22T23:45:13.010Z,79.76
2022-08-22T23:47:41.070Z,80.02
2022-08-22T23:50:10.076Z,80.34
2022-08-22T23:52:38.268Z,80.14
2022-08-22T23:55:07.595Z,80.69
2022-08-22T23:57:35.877Z,80.70
